createdAt,value
2022-10-24T00:06:50.094Z,81.10
2022-10-24T00:16:53.633Z,81.16
2022-10-24T00:26:56.915Z,81.21
2022-10-24T00:37:03.950Z,81.12
2022-10-24T00:47:25.778Z,81.10
2022-10-24T00:57:40.402Z,80.99
2022-10-24T01:08:08.286Z,80.93
2022-10-24T01:18:28.704Z,80.90
2022-10-24T01:28:46.115Z,80.97
2022-10-24T01:38:56.726Z,80.88
2022-10-24T01:49:11.482Z,80.92
2022-10-24T01:59:30.384Z,80.88
2022-10-24T02:09:38.106Z,80.93
2022-10-24T02:19:45.142Z,80.72
2022-10-24T02:30:12.814Z,80.64
2022-10-24T02:40:20.721Z,80.54
2022-10-24T02:50:24.367Z,80.65
2022-10-24T03:00:27.533Z,80.58
2022-10-24T03:10:30.745Z,80.58
2022-10-24T03:20:36.235Z,80.44
2022-10-24T03:30:39.427Z,80.37
2022-10-24T03:40:42.584Z,80.30
2022-10-24T03:50:47.005Z,80.16
2022-10-24T04:00:51.012Z,79.99
2022-10-24T04:10:54.174Z,79.93
2022-10-24T04:20:57.371Z,80.04
2022-10-24T04:31:00.992Z,79.92
2022-10-24T04:41:07.299Z,79.91
2022-10-24T04:51:16.262Z,80.19
2022-10-24T05:01:23.032Z,80.09
2022-10-24T05:11:26.480Z,80.15
2022-10-24T05:21:29.827Z,80.17
2022-10-24T05:33:40.874Z,80.00
2022-10-24T05:43:44.160Z,79.92
2022-10-24T05:53:47.439Z,80.20
2022-10-24T06:03:51.029Z,80.28
2022-10-24T06:13:55.759Z,80.24
2022-10-24T06:24:00.970Z,80.19
2022-10-24T06:34:04.311Z,79.85
2022-10-24T06:44:10.840Z,79.85
2022-10-24T06:54:15.437Z,79.69
2022-10-24T07:04:18.999Z,79.38
2022-10-24T07:14:22.734Z,79.32
2022-10-24T07:24:26.040Z,79.02
2022-10-24T07:34:29.409Z,78.78
2022-10-24T07:44:32.664Z,78.55
2022-10-24T07:54:37.344Z,78.12
2022-10-24T08:04:41.642Z,77.74
2022-10-24T08:14:48.239Z,77.25
2022-10-24T08:24:51.434Z,76.99
2022-10-24T08:34:54.614Z,76.51
2022-10-24T08:44:57.703Z,76.16
2022-10-24T08:55:25.079Z,75.83
2022-10-24T09:05:48.652Z,75.20
2022-10-24T09:15:51.754Z,74.72
2022-10-24T09:25:58.419Z,74.30
2022-10-24T09:36:04.620Z,74.17
2022-10-24T09:46:15.619Z,73.79
2022-10-24T09:56:19.729Z,73.91
2022-10-24T10:06:22.866Z,73.60
2022-10-24T10:16:38.771Z,73.27
2022-10-24T10:26:41.799Z,73.20
2022-10-24T10:36:51.904Z,73.43
2022-10-24T10:47:36.358Z,73.44
2022-10-24T10:57:49.636Z,73.68
2022-10-24T11:08:21.286Z,73.98
2022-10-24T11:18:35.345Z,73.65
2022-10-24T11:28:56.616Z,73.41
2022-10-24T11:39:16.675Z,72.79
2022-10-24T12:24:30.476Z,72.33
2022-10-24T12:34:48.801Z,72.01
2022-10-24T12:45:12.926Z,72.09
2022-10-24T12:55:39.735Z,71.53
2022-10-24T13:06:53.787Z,71.36
2022-10-24T13:17:02.988Z,71.02
2022-10-24T13:27:12.986Z,71.42
2022-10-24T13:37:27.463Z,72.08
2022-10-24T13:47:45.671Z,72.55
2022-10-24T13:58:06.624Z,72.91
2022-10-24T14:08:19.606Z,72.87
2022-10-24T14:18:23.532Z,73.01
2022-10-24T14:28:30.714Z,73.35
2022-10-24T14:38:35.521Z,73.67
2022-10-24T14:48:45.343Z,73.98
2022-10-24T14:58:51.983Z,74.20
2022-10-24T15:09:10.966Z,74.47
2022-10-24T15:19:18.298Z,74.90
2022-10-24T15:29:23.451Z,75.25
2022-10-24T15:39:26.829Z,75.28
2022-10-24T15:49:31.781Z,75.16
2022-10-24T15:59:35.019Z,75.30
2022-10-24T16:09:38.477Z,75.25
2022-10-24T16:19:41.568Z,75.35
2022-10-24T16:29:44.739Z,75.42
2022-10-24T16:39:48.028Z,75.37
2022-10-24T16:49:59.407Z,75.33
2022-10-24T17:00:06.325Z,75.14
2022-10-24T17:10:14.915Z,75.05
2022-10-24T17:20:18.317Z,75.11
2022-10-24T17:30:25.876Z,74.97
2022-10-24T17:40:46.588Z,74.87
2022-10-24T17:50:56.873Z,74.78
2022-10-24T18:01:01.419Z,74.75
2022-10-24T18:11:09.299Z,74.58
2022-10-24T18:21:19.825Z,74.63
2022-10-24T18:31:27.024Z,74.65
2022-10-24T18:41:43.284Z,74.79
2022-10-24T18:52:03.156Z,74.85
2022-10-24T19:02:26.811Z,75.03
2022-10-24T19:12:30.247Z,75.33
2022-10-24T19:22:33.848Z,75.76
2022-10-24T19:32:44.757Z,76.04
2022-10-24T19:42:59.885Z,76.21
2022-10-24T19:53:15.921Z,76.45
2022-10-24T20:03:19.028Z,76.66
2022-10-24T20:13:22.790Z,76.89
2022-10-24T20:23:26.419Z,77.15
2022-10-24T20:33:29.689Z,77.29
2022-10-24T20:43:32.762Z,77.45
2022-10-24T20:53:36.597Z,77.61
2022-10-24T21:03:40.687Z,77.69
2022-10-24T21:13:46.607Z,77.85
2022-10-24T21:24:00.961Z,77.97
2022-10-24T21:34:10.118Z,77.83
2022-10-24T21:44:14.786Z,77.80
2022-10-24T21:54:21.782Z,77.86
2022-10-24T22:04:25.304Z,77.77
2022-10-24T22:14:28.381Z,77.77
2022-10-24T22:24:31.533Z,77.83
2022-10-24T22:34:34.909Z,77.74
2022-10-24T22:44:38.459Z,77.76
2022-10-24T22:54:45.218Z,77.82
2022-10-24T23:05:01.259Z,77.93
2022-10-24T23:15:07.174Z,77.79
2022-10-24T23:25:11.441Z,77.96
2022-10-24T23:35:16.606Z,78.06
2022-10-24T23:45:23.346Z,77.98
2022-10-24T23:55:26.864Z,77.96
